sensor_id;sensor_type;location;lat;lon;timestamp;P1;durP1;ratioP1;P2;durP2;ratioP2
44328;SDS011;30039;51.462;6.892;2024-01-11T00:00:45;45.10;;;22.42;;
44328;SDS011;30039;51.462;6.892;2024-01-11T00:03:30;46.92;;;21.65;;
44328;SDS011;30039;51.462;6.892;2024-01-11T00:06:16;41.90;;;21.17;;
44328;SDS011;30039;51.462;6.892;2024-01-11T00:09:02;45.72;;;22.42;;
44328;SDS011;30039;51.462;6.892;2024-01-11T00:11:49;47.03;;;21.23;;
44328;SDS011;30039;51.462;6.892;2024-01-11T00:14:35;42.35;;;21.38;;
44328;SDS011;30039;51.462;6.892;2024-01-11T00:17:20;47.42;;;21.38;;
44328;SDS011;30039;51.462;6.892;2024-01-11T00:20:06;47.63;;;21.75;;
44328;SDS011;30039;51.462;6.892;2024-01-11T00:22:52;43.88;;;20.33;;
44328;SDS011;30039;51.462;6.892;2024-01-11T00:25:37;41.63;;;21.38;;
44328;SDS011;30039;51.462;6.892;2024-01-11T00:28:23;50.13;;;21.83;;
44328;SDS011;30039;51.462;6.892;2024-01-11T00:31:08;44.50;;;22.45;;
44328;SDS011;30039;51.462;6.892;2024-01-11T00:33:54;45.90;;;23.02;;
44328;SDS011;30039;51.462;6.892;2024-01-11T00:36:40;48.45;;;22.38;;
44328;SDS011;30039;51.462;6.892;2024-01-11T00:39:25;44.92;;;22.10;;
44328;SDS011;30039;51.462;6.892;2024-01-11T00:42:11;46.85;;;21.60;;
44328;SDS011;30039;51.462;6.892;2024-01-11T00:44:56;51.30;;;21.85;;
44328;SDS011;30039;51.462;6.892;2024-01-11T00:47:42;48.88;;;22.27;;
44328;SDS011;30039;51.462;6.892;2024-01-11T00:50:28;49.58;;;22.23;;
44328;SDS011;30039;51.462;6.892;2024-01-11T00:53:13;42.05;;;21.60;;
44328;SDS011;30039;51.462;6.892;2024-01-11T00:56:00;45.78;;;21.98;;
44328;SDS011;30039;51.462;6.892;2024-01-11T00:58:45;45.63;;;20.48;;
44328;SDS011;30039;51.462;6.892;2024-01-11T01:01:31;47.40;;;21.30;;
44328;SDS011;30039;51.462;6.892;2024-01-11T01:04:17;48.67;;;21.13;;
44328;SDS011;30039;51.462;6.892;2024-01-11T01:07:02;43.03;;;21.42;;
44328;SDS011;30039;51.462;6.892;2024-01-11T01:09:48;45.95;;;21.23;;
44328;SDS011;30039;51.462;6.892;2024-01-11T01:12:34;45.35;;;21.50;;
44328;SDS011;30039;51.462;6.892;2024-01-11T01:15:19;47.65;;;22.73;;
44328;SDS011;30039;51.462;6.892;2024-01-11T01:18:05;47.47;;;22.30;;
44328;SDS011;30039;51.462;6.892;2024-01-11T01:20:51;42.75;;;21.30;;
44328;SDS011;30039;51.462;6.892;2024-01-11T01:23:36;46.22;;;22.17;;
44328;SDS011;30039;51.462;6.892;2024-01-11T01:26:22;44.10;;;21.40;;
44328;SDS011;30039;51.462;6.892;2024-01-11T01:29:07;47.40;;;22.00;;
44328;SDS011;30039;51.462;6.892;2024-01-11T01:31:53;49.72;;;22.55;;
44328;SDS011;30039;51.462;6.892;2024-01-11T01:34:38;46.30;;;21.73;;
44328;SDS011;30039;51.462;6.892;2024-01-11T01:37:24;44.63;;;21.80;;
44328;SDS011;30039;51.462;6.892;2024-01-11T01:40:10;44.33;;;22.25;;
44328;SDS011;30039;51.462;6.892;2024-01-11T01:42:59;49.22;;;22.88;;
44328;SDS011;30039;51.462;6.892;2024-01-11T01:45:47;51.33;;;23.98;;
44328;SDS011;30039;51.462;6.892;2024-01-11T01:48:33;48.95;;;22.77;;
44328;SDS011;30039;51.462;6.892;2024-01-11T01:51:19;44.53;;;21.90;;
44328;SDS011;30039;51.462;6.892;2024-01-11T01:54:05;48.72;;;21.77;;
44328;SDS011;30039;51.462;6.892;2024-01-11T01:56:50;48.25;;;22.35;;
44328;SDS011;30039;51.462;6.892;2024-01-11T01:59:37;48.90;;;22.38;;
44328;SDS011;30039;51.462;6.892;2024-01-11T02:02:23;46.10;;;21.58;;
44328;SDS011;30039;51.462;6.892;2024-01-11T02:05:09;52.95;;;23.75;;
44328;SDS011;30039;51.462;6.892;2024-01-11T02:07:55;44.60;;;22.20;;
44328;SDS011;30039;51.462;6.892;2024-01-11T02:10:42;48.10;;;22.98;;
44328;SDS011;30039;51.462;6.892;2024-01-11T02:13:28;48.40;;;23.10;;
44328;SDS011;30039;51.462;6.892;2024-01-11T02:16:13;48.38;;;23.52;;
44328;SDS011;30039;51.462;6.892;2024-01-11T02:18:59;46.45;;;23.25;;
44328;SDS011;30039;51.462;6.892;2024-01-11T02:21:46;46.30;;;22.92;;
44328;SDS011;30039;51.462;6.892;2024-01-11T02:24:31;51.03;;;23.48;;
44328;SDS011;30039;51.462;6.892;2024-01-11T02:27:17;51.50;;;24.25;;
44328;SDS011;30039;51.462;6.892;2024-01-11T02:30:03;42.38;;;22.40;;
44328;SDS011;30039;51.462;6.892;2024-01-11T02:32:49;48.00;;;23.67;;
44328;SDS011;30039;51.462;6.892;2024-01-11T02:35:35;52.55;;;24.45;;
44328;SDS011;30039;51.462;6.892;2024-01-11T02:38:24;50.13;;;24.90;;
44328;SDS011;30039;51.462;6.892;2024-01-11T02:41:09;54.78;;;24.40;;
44328;SDS011;30039;51.462;6.892;2024-01-11T02:43:55;51.15;;;23.67;;
44328;SDS011;30039;51.462;6.892;2024-01-11T02:46:41;55.58;;;24.80;;
44328;SDS011;30039;51.462;6.892;2024-01-11T02:49:27;50.78;;;25.08;;
44328;SDS011;30039;51.462;6.892;2024-01-11T02:52:12;51.70;;;23.65;;
44328;SDS011;30039;51.462;6.892;2024-01-11T02:54:58;46.25;;;23.63;;
44328;SDS011;30039;51.462;6.892;2024-01-11T02:57:43;47.38;;;23.58;;
44328;SDS011;30039;51.462;6.892;2024-01-11T03:00:29;51.13;;;24.90;;
44328;SDS011;30039;51.462;6.892;2024-01-11T03:03:14;48.95;;;24.75;;
44328;SDS011;30039;51.462;6.892;2024-01-11T03:06:00;52.90;;;25.52;;
44328;SDS011;30039;51.462;6.892;2024-01-11T03:08:46;48.60;;;24.13;;
44328;SDS011;30039;51.462;6.892;2024-01-11T03:11:31;44.10;;;22.70;;
44328;SDS011;30039;51.462;6.892;2024-01-11T03:14:17;46.28;;;24.40;;
44328;SDS011;30039;51.462;6.892;2024-01-11T03:17:02;53.35;;;24.17;;
44328;SDS011;30039;51.462;6.892;2024-01-11T03:19:48;50.17;;;24.10;;
44328;SDS011;30039;51.462;6.892;2024-01-11T03:22:34;49.10;;;24.25;;
44328;SDS011;30039;51.462;6.892;2024-01-11T03:25:20;51.28;;;23.83;;
44328;SDS011;30039;51.462;6.892;2024-01-11T03:28:05;49.75;;;24.10;;
44328;SDS011;30039;51.462;6.892;2024-01-11T03:30:51;49.78;;;23.40;;
44328;SDS011;30039;51.462;6.892;2024-01-11T03:33:36;48.25;;;22.77;;
44328;SDS011;30039;51.462;6.892;2024-01-11T03:36:25;46.53;;;22.70;;
44328;SDS011;30039;51.462;6.892;2024-01-11T03:39:11;50.47;;;23.27;;
44328;SDS011;30039;51.462;6.892;2024-01-11T03:41:56;49.28;;;23.45;;
44328;SDS011;30039;51.462;6.892;2024-01-11T03:44:42;47.25;;;22.63;;
44328;SDS011;30039;51.462;6.892;2024-01-11T03:47:28;49.58;;;23.50;;
44328;SDS011;30039;51.462;6.892;2024-01-11T03:50:13;49.63;;;23.92;;
44328;SDS011;30039;51.462;6.892;2024-01-11T03:52:59;52.25;;;22.70;;
44328;SDS011;30039;51.462;6.892;2024-01-11T03:55:44;45.95;;;22.00;;
44328;SDS011;30039;51.462;6.892;2024-01-11T03:58:30;46.70;;;22.73;;
44328;SDS011;30039;51.462;6.892;2024-01-11T04:01:15;48.13;;;23.25;;
44328;SDS011;30039;51.462;6.892;2024-01-11T04:04:01;49.28;;;24.05;;
44328;SDS011;30039;51.462;6.892;2024-01-11T04:06:47;52.25;;;24.23;;
44328;SDS011;30039;51.462;6.892;2024-01-11T04:09:32;52.03;;;23.77;;
44328;SDS011;30039;51.462;6.892;2024-01-11T04:12:18;50.33;;;22.88;;
44328;SDS011;30039;51.462;6.892;2024-01-11T04:15:03;49.20;;;22.92;;
44328;SDS011;30039;51.462;6.892;2024-01-11T04:17:49;46.35;;;23.45;;
44328;SDS011;30039;51.462;6.892;2024-01-11T04:20:35;49.78;;;23.50;;
44328;SDS011;30039;51.462;6.892;2024-01-11T04:23:20;48.15;;;22.38;;
44328;SDS011;30039;51.462;6.892;2024-01-11T04:26:06;50.60;;;22.63;;
44328;SDS011;30039;51.462;6.892;2024-01-11T04:28:52;49.83;;;23.33;;
44328;SDS011;30039;51.462;6.892;2024-01-11T04:31:38;50.90;;;23.42;;
44328;SDS011;30039;51.462;6.892;2024-01-11T04:34:23;50.97;;;24.00;;
44328;SDS011;30039;51.462;6.892;2024-01-11T04:37:09;53.75;;;23.38;;
44328;SDS011;30039;51.462;6.892;2024-01-11T04:39:55;49.25;;;23.17;;
44328;SDS011;30039;51.462;6.892;2024-01-11T04:42:40;48.60;;;23.02;;
44328;SDS011;30039;51.462;6.892;2024-01-11T04:45:26;52.47;;;24.20;;
44328;SDS011;30039;51.462;6.892;2024-01-11T04:48:11;49.15;;;23.40;;
44328;SDS011;30039;51.462;6.892;2024-01-11T04:50:57;51.55;;;24.48;;
44328;SDS011;30039;51.462;6.892;2024-01-11T04:53:43;48.17;;;23.33;;
44328;SDS011;30039;51.462;6.892;2024-01-11T04:56:29;50.33;;;23.25;;
44328;SDS011;30039;51.462;6.892;2024-01-11T04:59:15;47.72;;;23.77;;
44328;SDS011;30039;51.462;6.892;2024-01-11T05:02:00;45.33;;;23.42;;
44328;SDS011;30039;51.462;6.892;2024-01-11T05:04:46;51.50;;;23.70;;
44328;SDS011;30039;51.462;6.892;2024-01-11T05:07:32;48.28;;;23.48;;
44328;SDS011;30039;51.462;6.892;2024-01-11T05:10:17;53.10;;;22.88;;
44328;SDS011;30039;51.462;6.892;2024-01-11T05:13:03;49.13;;;23.08;;
44328;SDS011;30039;51.462;6.892;2024-01-11T05:15:49;49.90;;;23.13;;
44328;SDS011;30039;51.462;6.892;2024-01-11T05:18:34;51.58;;;23.65;;
44328;SDS011;30039;51.462;6.892;2024-01-11T05:21:20;52.17;;;23.75;;
44328;SDS011;30039;51.462;6.892;2024-01-11T05:24:06;48.15;;;23.85;;
44328;SDS011;30039;51.462;6.892;2024-01-11T05:26:52;47.63;;;23.55;;
44328;SDS011;30039;51.462;6.892;2024-01-11T05:29:37;48.45;;;23.35;;
44328;SDS011;30039;51.462;6.892;2024-01-11T05:32:23;52.90;;;23.23;;
44328;SDS011;30039;51.462;6.892;2024-01-11T05:35:08;47.72;;;23.15;;
44328;SDS011;30039;51.462;6.892;2024-01-11T05:37:55;53.47;;;24.38;;
44328;SDS011;30039;51.462;6.892;2024-01-11T05:40:41;49.83;;;24.10;;
44328;SDS011;30039;51.462;6.892;2024-01-11T05:43:26;51.08;;;22.77;;
44328;SDS011;30039;51.462;6.892;2024-01-11T05:46:12;51.17;;;24.08;;
44328;SDS011;30039;51.462;6.892;2024-01-11T05:48:58;51.28;;;24.13;;
44328;SDS011;30039;51.462;6.892;2024-01-11T05:51:43;48.00;;;23.23;;
44328;SDS011;30039;51.462;6.892;2024-01-11T05:54:29;51.95;;;23.67;;
44328;SDS011;30039;51.462;6.892;2024-01-11T05:57:14;50.78;;;23.73;;
44328;SDS011;30039;51.462;6.892;2024-01-11T06:00:00;52.75;;;24.00;;
44328;SDS011;30039;51.462;6.892;2024-01-11T06:02:46;50.88;;;23.20;;
44328;SDS011;30039;51.462;6.892;2024-01-11T06:05:31;49.75;;;22.63;;
44328;SDS011;30039;51.462;6.892;2024-01-11T06:08:17;51.03;;;23.52;;
44328;SDS011;30039;51.462;6.892;2024-01-11T06:11:02;50.40;;;23.77;;
44328;SDS011;30039;51.462;6.892;2024-01-11T06:13:49;47.08;;;22.00;;
44328;SDS011;30039;51.462;6.892;2024-01-11T06:16:35;49.88;;;22.90;;
44328;SDS011;30039;51.462;6.892;2024-01-11T06:19:20;55.28;;;23.20;;
44328;SDS011;30039;51.462;6.892;2024-01-11T06:22:06;48.95;;;23.38;;
44328;SDS011;30039;51.462;6.892;2024-01-11T06:24:52;52.08;;;23.58;;
44328;SDS011;30039;51.462;6.892;2024-01-11T06:27:37;52.50;;;24.75;;
44328;SDS011;30039;51.462;6.892;2024-01-11T06:30:23;50.85;;;22.25;;
44328;SDS011;30039;51.462;6.892;2024-01-11T06:33:08;46.65;;;22.65;;
44328;SDS011;30039;51.462;6.892;2024-01-11T06:35:54;54.05;;;23.63;;
44328;SDS011;30039;51.462;6.892;2024-01-11T06:38:39;48.72;;;23.25;;
44328;SDS011;30039;51.462;6.892;2024-01-11T06:41:25;47.38;;;22.58;;
44328;SDS011;30039;51.462;6.892;2024-01-11T06:44:11;48.53;;;23.05;;
44328;SDS011;30039;51.462;6.892;2024-01-11T06:46:56;46.22;;;23.10;;
44328;SDS011;30039;51.462;6.892;2024-01-11T06:49:42;50.33;;;23.00;;
44328;SDS011;30039;51.462;6.892;2024-01-11T06:52:27;49.78;;;22.67;;
44328;SDS011;30039;51.462;6.892;2024-01-11T06:55:13;44.35;;;22.83;;
44328;SDS011;30039;51.462;6.892;2024-01-11T06:57:59;52.20;;;23.73;;
44328;SDS011;30039;51.462;6.892;2024-01-11T07:00:44;50.03;;;24.15;;
44328;SDS011;30039;51.462;6.892;2024-01-11T07:03:30;48.13;;;22.77;;
44328;SDS011;30039;51.462;6.892;2024-01-11T07:06:15;45.75;;;22.90;;
44328;SDS011;30039;51.462;6.892;2024-01-11T07:09:01;46.42;;;23.10;;
44328;SDS011;30039;51.462;6.892;2024-01-11T07:11:47;51.03;;;22.63;;
44328;SDS011;30039;51.462;6.892;2024-01-11T07:14:33;46.55;;;23.75;;
44328;SDS011;30039;51.462;6.892;2024-01-11T07:17:18;47.63;;;22.88;;
44328;SDS011;30039;51.462;6.892;2024-01-11T07:20:04;52.58;;;24.58;;
44328;SDS011;30039;51.462;6.892;2024-01-11T07:22:50;49.90;;;23.90;;
44328;SDS011;30039;51.462;6.892;2024-01-11T07:25:35;53.83;;;25.02;;
44328;SDS011;30039;51.462;6.892;2024-01-11T07:28:21;54.65;;;25.10;;
44328;SDS011;30039;51.462;6.892;2024-01-11T07:31:10;60.88;;;23.60;;
44328;SDS011;30039;51.462;6.892;2024-01-11T07:33:56;47.70;;;23.75;;
44328;SDS011;30039;51.462;6.892;2024-01-11T07:36:41;56.35;;;24.73;;
44328;SDS011;30039;51.462;6.892;2024-01-11T07:39:27;51.10;;;25.13;;
44328;SDS011;30039;51.462;6.892;2024-01-11T07:42:13;48.78;;;25.13;;
44328;SDS011;30039;51.462;6.892;2024-01-11T07:44:59;55.60;;;25.67;;
44328;SDS011;30039;51.462;6.892;2024-01-11T07:47:45;58.33;;;23.98;;
44328;SDS011;30039;51.462;6.892;2024-01-11T07:50:30;51.53;;;24.35;;
44328;SDS011;30039;51.462;6.892;2024-01-11T07:53:16;53.67;;;25.50;;
44328;SDS011;30039;51.462;6.892;2024-01-11T07:56:02;49.03;;;24.20;;
44328;SDS011;30039;51.462;6.892;2024-01-11T07:58:48;56.90;;;24.98;;
44328;SDS011;30039;51.462;6.892;2024-01-11T08:01:33;59.05;;;24.88;;
44328;SDS011;30039;51.462;6.892;2024-01-11T08:04:20;52.30;;;25.92;;
44328;SDS011;30039;51.462;6.892;2024-01-11T08:07:06;52.65;;;24.65;;
44328;SDS011;30039;51.462;6.892;2024-01-11T08:09:51;53.63;;;25.95;;
44328;SDS011;30039;51.462;6.892;2024-01-11T08:12:37;54.05;;;24.92;;
44328;SDS011;30039;51.462;6.892;2024-01-11T08:15:23;53.45;;;24.70;;
44328;SDS011;30039;51.462;6.892;2024-01-11T08:18:08;52.47;;;25.30;;
44328;SDS011;30039;51.462;6.892;2024-01-11T08:20:54;53.97;;;25.00;;
44328;SDS011;30039;51.462;6.892;2024-01-11T08:23:40;49.67;;;25.20;;
44328;SDS011;30039;51.462;6.892;2024-01-11T08:26:29;57.20;;;25.35;;
44328;SDS011;30039;51.462;6.892;2024-01-11T08:29:18;52.53;;;24.67;;
44328;SDS011;30039;51.462;6.892;2024-01-11T08:32:07;52.42;;;25.15;;
44328;SDS011;30039;51.462;6.892;2024-01-11T08:34:53;49.40;;;23.52;;
44328;SDS011;30039;51.462;6.892;2024-01-11T08:37:38;50.42;;;25.17;;
44328;SDS011;30039;51.462;6.892;2024-01-11T08:40:24;51.92;;;24.33;;
44328;SDS011;30039;51.462;6.892;2024-01-11T08:43:10;53.10;;;25.20;;
44328;SDS011;30039;51.462;6.892;2024-01-11T08:45:56;53.30;;;25.23;;
44328;SDS011;30039;51.462;6.892;2024-01-11T08:48:42;55.97;;;25.70;;
44328;SDS011;30039;51.462;6.892;2024-01-11T08:51:27;52.75;;;25.35;;
44328;SDS011;30039;51.462;6.892;2024-01-11T08:54:13;57.70;;;27.38;;
44328;SDS011;30039;51.462;6.892;2024-01-11T08:57:01;60.50;;;29.10;;
44328;SDS011;30039;51.462;6.892;2024-01-11T08:59:47;54.47;;;26.85;;
44328;SDS011;30039;51.462;6.892;2024-01-11T09:02:32;54.75;;;26.17;;
44328;SDS011;30039;51.462;6.892;2024-01-11T09:05:18;52.30;;;25.15;;
44328;SDS011;30039;51.462;6.892;2024-01-11T09:08:04;50.70;;;24.95;;
44328;SDS011;30039;51.462;6.892;2024-01-11T09:10:52;55.78;;;25.65;;
44328;SDS011;30039;51.462;6.892;2024-01-11T09:13:38;57.22;;;23.90;;
44328;SDS011;30039;51.462;6.892;2024-01-11T09:16:25;49.60;;;24.20;;
44328;SDS011;30039;51.462;6.892;2024-01-11T09:19:11;49.45;;;23.52;;
44328;SDS011;30039;51.462;6.892;2024-01-11T09:21:57;50.53;;;24.20;;
44328;SDS011;30039;51.462;6.892;2024-01-11T09:24:42;48.10;;;24.88;;
44328;SDS011;30039;51.462;6.892;2024-01-11T09:27:28;49.80;;;24.67;;
44328;SDS011;30039;51.462;6.892;2024-01-11T09:30:14;56.63;;;24.98;;
44328;SDS011;30039;51.462;6.892;2024-01-11T09:32:59;49.40;;;24.95;;
44328;SDS011;30039;51.462;6.892;2024-01-11T09:35:45;53.38;;;25.08;;
44328;SDS011;30039;51.462;6.892;2024-01-11T09:38:31;54.40;;;25.30;;
44328;SDS011;30039;51.462;6.892;2024-01-11T09:41:16;50.80;;;25.23;;
44328;SDS011;30039;51.462;6.892;2024-01-11T09:44:02;49.30;;;25.08;;
44328;SDS011;30039;51.462;6.892;2024-01-11T09:46:50;48.67;;;24.15;;
44328;SDS011;30039;51.462;6.892;2024-01-11T09:49:35;46.40;;;23.63;;
44328;SDS011;30039;51.462;6.892;2024-01-11T09:52:23;48.78;;;23.35;;
44328;SDS011;30039;51.462;6.892;2024-01-11T09:55:11;44.78;;;22.92;;
44328;SDS011;30039;51.462;6.892;2024-01-11T09:57:57;45.53;;;23.67;;
44328;SDS011;30039;51.462;6.892;2024-01-11T10:00:45;45.80;;;22.52;;
44328;SDS011;30039;51.462;6.892;2024-01-11T10:03:32;40.65;;;21.42;;
44328;SDS011;30039;51.462;6.892;2024-01-11T10:06:17;41.22;;;20.80;;
44328;SDS011;30039;51.462;6.892;2024-01-11T10:09:03;39.63;;;21.38;;
44328;SDS011;30039;51.462;6.892;2024-01-11T10:11:49;41.85;;;21.48;;
44328;SDS011;30039;51.462;6.892;2024-01-11T10:14:36;42.10;;;21.67;;
44328;SDS011;30039;51.462;6.892;2024-01-11T10:17:21;42.92;;;21.92;;
44328;SDS011;30039;51.462;6.892;2024-01-11T10:20:07;42.33;;;22.33;;
44328;SDS011;30039;51.462;6.892;2024-01-11T10:22:56;45.97;;;22.90;;
44328;SDS011;30039;51.462;6.892;2024-01-11T10:25:42;45.08;;;22.05;;
44328;SDS011;30039;51.462;6.892;2024-01-11T10:28:28;42.90;;;22.67;;
44328;SDS011;30039;51.462;6.892;2024-01-11T10:31:13;39.35;;;22.23;;
44328;SDS011;30039;51.462;6.892;2024-01-11T10:34:00;43.00;;;23.13;;
44328;SDS011;30039;51.462;6.892;2024-01-11T10:36:46;43.50;;;22.40;;
44328;SDS011;30039;51.462;6.892;2024-01-11T10:39:32;42.40;;;23.08;;
44328;SDS011;30039;51.462;6.892;2024-01-11T10:42:20;46.70;;;22.55;;
44328;SDS011;30039;51.462;6.892;2024-01-11T10:45:15;42.83;;;22.20;;
44328;SDS011;30039;51.462;6.892;2024-01-11T10:48:12;45.70;;;23.45;;
44328;SDS011;30039;51.462;6.892;2024-01-11T10:50:59;44.05;;;22.00;;
44328;SDS011;30039;51.462;6.892;2024-01-11T10:53:46;44.65;;;21.88;;
44328;SDS011;30039;51.462;6.892;2024-01-11T10:56:32;37.55;;;21.70;;
44328;SDS011;30039;51.462;6.892;2024-01-11T10:59:18;43.67;;;22.10;;
44328;SDS011;30039;51.462;6.892;2024-01-11T11:02:06;40.63;;;22.38;;
44328;SDS011;30039;51.462;6.892;2024-01-11T11:04:53;44.50;;;23.35;;
44328;SDS011;30039;51.462;6.892;2024-01-11T11:07:40;44.40;;;23.30;;
44328;SDS011;30039;51.462;6.892;2024-01-11T11:10:25;45.90;;;23.38;;
44328;SDS011;30039;51.462;6.892;2024-01-11T11:13:13;42.13;;;21.23;;
44328;SDS011;30039;51.462;6.892;2024-01-11T11:15:59;37.10;;;20.63;;
44328;SDS011;30039;51.462;6.892;2024-01-11T11:18:45;38.35;;;19.85;;
44328;SDS011;30039;51.462;6.892;2024-01-11T11:21:31;36.50;;;19.50;;
44328;SDS011;30039;51.462;6.892;2024-01-11T11:24:16;39.25;;;21.02;;
44328;SDS011;30039;51.462;6.892;2024-01-11T11:27:02;38.17;;;20.63;;
44328;SDS011;30039;51.462;6.892;2024-01-11T11:29:49;37.35;;;20.90;;
44328;SDS011;30039;51.462;6.892;2024-01-11T11:32:37;36.03;;;20.15;;
44328;SDS011;30039;51.462;6.892;2024-01-11T11:35:24;37.28;;;20.90;;
44328;SDS011;30039;51.462;6.892;2024-01-11T11:38:16;40.50;;;21.48;;
44328;SDS011;30039;51.462;6.892;2024-01-11T11:41:03;39.17;;;19.80;;
44328;SDS011;30039;51.462;6.892;2024-01-11T11:43:48;40.28;;;20.83;;
44328;SDS011;30039;51.462;6.892;2024-01-11T11:46:34;38.97;;;20.88;;
44328;SDS011;30039;51.462;6.892;2024-01-11T11:49:20;41.28;;;21.42;;
44328;SDS011;30039;51.462;6.892;2024-01-11T11:52:05;35.53;;;19.30;;
44328;SDS011;30039;51.462;6.892;2024-01-11T11:54:51;34.47;;;19.27;;
44328;SDS011;30039;51.462;6.892;2024-01-11T11:57:37;37.75;;;18.80;;
44328;SDS011;30039;51.462;6.892;2024-01-11T12:00:23;37.42;;;18.75;;
44328;SDS011;30039;51.462;6.892;2024-01-11T12:03:09;33.17;;;17.52;;
44328;SDS011;30039;51.462;6.892;2024-01-11T12:05:55;35.50;;;18.45;;
44328;SDS011;30039;51.462;6.892;2024-01-11T12:08:44;36.17;;;19.13;;
44328;SDS011;30039;51.462;6.892;2024-01-11T12:11:30;38.50;;;21.05;;
44328;SDS011;30039;51.462;6.892;2024-01-11T12:14:16;38.10;;;20.05;;
44328;SDS011;30039;51.462;6.892;2024-01-11T12:17:01;35.85;;;20.48;;
44328;SDS011;30039;51.462;6.892;2024-01-11T12:19:47;39.15;;;19.55;;
44328;SDS011;30039;51.462;6.892;2024-01-11T12:22:33;40.97;;;19.63;;
44328;SDS011;30039;51.462;6.892;2024-01-11T12:25:19;37.70;;;19.92;;
44328;SDS011;30039;51.462;6.892;2024-01-11T12:28:05;34.08;;;19.42;;
44328;SDS011;30039;51.462;6.892;2024-01-11T12:30:51;34.35;;;19.05;;
44328;SDS011;30039;51.462;6.892;2024-01-11T12:33:37;46.08;;;20.95;;
44328;SDS011;30039;51.462;6.892;2024-01-11T12:36:26;34.97;;;18.80;;
44328;SDS011;30039;51.462;6.892;2024-01-11T12:39:12;31.70;;;17.75;;
44328;SDS011;30039;51.462;6.892;2024-01-11T12:41:58;30.67;;;16.05;;
44328;SDS011;30039;51.462;6.892;2024-01-11T12:44:44;32.40;;;15.48;;
44328;SDS011;30039;51.462;6.892;2024-01-11T12:47:30;28.75;;;15.60;;
44328;SDS011;30039;51.462;6.892;2024-01-11T12:50:16;28.25;;;15.05;;
44328;SDS011;30039;51.462;6.892;2024-01-11T12:53:15;31.13;;;15.27;;
44328;SDS011;30039;51.462;6.892;2024-01-11T12:56:04;28.17;;;15.05;;
44328;SDS011;30039;51.462;6.892;2024-01-11T12:59:04;34.70;;;16.73;;
44328;SDS011;30039;51.462;6.892;2024-01-11T13:01:50;30.02;;;16.45;;
44328;SDS011;30039;51.462;6.892;2024-01-11T13:04:35;32.22;;;16.88;;
44328;SDS011;30039;51.462;6.892;2024-01-11T13:07:22;29.80;;;15.93;;
44328;SDS011;30039;51.462;6.892;2024-01-11T13:10:08;32.58;;;16.35;;
44328;SDS011;30039;51.462;6.892;2024-01-11T13:12:54;29.20;;;15.23;;
44328;SDS011;30039;51.462;6.892;2024-01-11T13:15:40;28.73;;;16.38;;
44328;SDS011;30039;51.462;6.892;2024-01-11T13:18:26;29.08;;;16.08;;
44328;SDS011;30039;51.462;6.892;2024-01-11T13:21:11;27.38;;;15.65;;
44328;SDS011;30039;51.462;6.892;2024-01-11T13:23:57;29.45;;;15.05;;
44328;SDS011;30039;51.462;6.892;2024-01-11T13:26:43;29.75;;;15.30;;
44328;SDS011;30039;51.462;6.892;2024-01-11T13:29:29;27.92;;;14.70;;
44328;SDS011;30039;51.462;6.892;2024-01-11T13:32:14;28.85;;;15.52;;
44328;SDS011;30039;51.462;6.892;2024-01-11T13:35:01;28.20;;;13.95;;
44328;SDS011;30039;51.462;6.892;2024-01-11T13:37:46;26.15;;;13.55;;
44328;SDS011;30039;51.462;6.892;2024-01-11T13:40:32;28.98;;;14.77;;
44328;SDS011;30039;51.462;6.892;2024-01-11T13:43:18;26.20;;;14.80;;
44328;SDS011;30039;51.462;6.892;2024-01-11T13:46:03;25.55;;;14.43;;
44328;SDS011;30039;51.462;6.892;2024-01-11T13:48:49;28.02;;;15.00;;
44328;SDS011;30039;51.462;6.892;2024-01-11T13:51:35;28.95;;;14.82;;
44328;SDS011;30039;51.462;6.892;2024-01-11T13:54:22;29.13;;;14.27;;
44328;SDS011;30039;51.462;6.892;2024-01-11T13:57:08;24.55;;;13.52;;
44328;SDS011;30039;51.462;6.892;2024-01-11T13:59:54;28.88;;;14.63;;
44328;SDS011;30039;51.462;6.892;2024-01-11T14:02:39;26.58;;;14.00;;
44328;SDS011;30039;51.462;6.892;2024-01-11T14:05:25;30.17;;;14.52;;
44328;SDS011;30039;51.462;6.892;2024-01-11T14:08:11;30.08;;;14.57;;
44328;SDS011;30039;51.462;6.892;2024-01-11T14:10:57;30.05;;;15.30;;
44328;SDS011;30039;51.462;6.892;2024-01-11T14:13:43;31.38;;;14.85;;
44328;SDS011;30039;51.462;6.892;2024-01-11T14:16:29;28.17;;;14.63;;
44328;SDS011;30039;51.462;6.892;2024-01-11T14:19:14;28.40;;;14.90;;
44328;SDS011;30039;51.462;6.892;2024-01-11T14:22:00;30.58;;;14.82;;
44328;SDS011;30039;51.462;6.892;2024-01-11T14:24:46;28.80;;;14.18;;
44328;SDS011;30039;51.462;6.892;2024-01-11T14:27:31;25.45;;;14.02;;
44328;SDS011;30039;51.462;6.892;2024-01-11T14:30:17;28.10;;;14.60;;
44328;SDS011;30039;51.462;6.892;2024-01-11T14:33:02;27.23;;;13.98;;
44328;SDS011;30039;51.462;6.892;2024-01-11T14:35:49;25.33;;;14.48;;
44328;SDS011;30039;51.462;6.892;2024-01-11T14:38:34;30.10;;;15.55;;
44328;SDS011;30039;51.462;6.892;2024-01-11T14:41:20;28.58;;;15.55;;
44328;SDS011;30039;51.462;6.892;2024-01-11T14:44:06;26.77;;;13.85;;
44328;SDS011;30039;51.462;6.892;2024-01-11T14:46:51;26.40;;;13.32;;
44328;SDS011;30039;51.462;6.892;2024-01-11T14:49:37;26.05;;;13.07;;
44328;SDS011;30039;51.462;6.892;2024-01-11T14:52:22;24.55;;;13.52;;
44328;SDS011;30039;51.462;6.892;2024-01-11T14:55:08;27.50;;;13.38;;
44328;SDS011;30039;51.462;6.892;2024-01-11T14:57:55;24.65;;;13.75;;
44328;SDS011;30039;51.462;6.892;2024-01-11T15:00:41;27.40;;;14.10;;
44328;SDS011;30039;51.462;6.892;2024-01-11T15:03:26;23.55;;;13.48;;
44328;SDS011;30039;51.462;6.892;2024-01-11T15:06:12;24.23;;;13.85;;
44328;SDS011;30039;51.462;6.892;2024-01-11T15:08:58;24.70;;;13.32;;
44328;SDS011;30039;51.462;6.892;2024-01-11T15:11:44;50.60;;;22.08;;
44328;SDS011;30039;51.462;6.892;2024-01-11T15:14:30;24.27;;;13.02;;
44328;SDS011;30039;51.462;6.892;2024-01-11T15:17:15;24.85;;;12.38;;
44328;SDS011;30039;51.462;6.892;2024-01-11T15:20:02;26.98;;;13.10;;
44328;SDS011;30039;51.462;6.892;2024-01-11T15:22:49;23.25;;;13.15;;
44328;SDS011;30039;51.462;6.892;2024-01-11T15:25:35;21.95;;;11.80;;
44328;SDS011;30039;51.462;6.892;2024-01-11T15:28:21;19.52;;;11.68;;
44328;SDS011;30039;51.462;6.892;2024-01-11T15:31:06;20.63;;;11.07;;
44328;SDS011;30039;51.462;6.892;2024-01-11T15:33:53;20.27;;;10.63;;
44328;SDS011;30039;51.462;6.892;2024-01-11T15:36:40;17.95;;;9.38;;
44328;SDS011;30039;51.462;6.892;2024-01-11T15:39:25;17.88;;;9.00;;
44328;SDS011;30039;51.462;6.892;2024-01-11T15:42:11;14.43;;;7.72;;
44328;SDS011;30039;51.462;6.892;2024-01-11T15:44:57;11.70;;;6.93;;
44328;SDS011;30039;51.462;6.892;2024-01-11T15:47:43;14.57;;;7.22;;
44328;SDS011;30039;51.462;6.892;2024-01-11T15:50:28;12.82;;;6.50;;
44328;SDS011;30039;51.462;6.892;2024-01-11T15:53:14;13.93;;;7.25;;
44328;SDS011;30039;51.462;6.892;2024-01-11T15:55:59;13.03;;;7.40;;
44328;SDS011;30039;51.462;6.892;2024-01-11T15:58:46;12.10;;;7.10;;
44328;SDS011;30039;51.462;6.892;2024-01-11T16:01:31;13.98;;;7.43;;
44328;SDS011;30039;51.462;6.892;2024-01-11T16:04:18;10.88;;;6.32;;
44328;SDS011;30039;51.462;6.892;2024-01-11T16:07:03;12.35;;;6.38;;
44328;SDS011;30039;51.462;6.892;2024-01-11T16:09:49;11.40;;;6.97;;